Time;durP1;ratioP1;P1;durP2;ratioP2;P2;SDS_P1;SDS_P2;PMS_P1;PMS_P2;Temp;Humidity;BMP_temperature;BMP_pressure;BME280_temperature;BME280_humidity;BME280_pressure;Samples;Min_cycle;Max_cycle;Signal;HPM_P1;HPM_P2
2022/08/23 00:01:37;;;;;;;50.10;45.38;;;;;;;21.61;100.00;100382.22;5019030;28;20137;-92
2022/08/23 00:04:13;;;;;;;52.60;47.70;;;;;;;21.63;100.00;100394.31;5018717;28;20054;-92
2022/08/23 00:06:44;;;;;;;52.05;47.45;;;;;;;21.72;100.00;100392.63;5012972;28;20053;-93
2022/08/23 00:09:12;;;;;;;57.33;51.87;;;;;;;21.70;100.00;100397.50;5021386;28;20053;-93
2022/08/23 00:11:43;;;;;;;53.40;48.25;;;;;;;21.61;100.00;100401.13;5027216;28;20049;-92
2022/08/23 00:14:16;;;;;;;51.75;47.15;;;;;;;21.71;100.00;100401.00;5029320;28;20076;-92
2022/08/23 00:16:44;;;;;;;51.78;47.58;;;;;;;21.26;100.00;100403.06;5028976;28;20050;-92
2022/08/23 00:19:15;;;;;;;53.83;49.25;;;;;;;21.43;100.00;100402.66;5020582;28;20427;-94
2022/08/23 00:21:46;;;;;;;53.65;48.95;;;;;;;21.59;100.00;100409.50;5025779;28;20100;-93
2022/08/23 00:24:16;;;;;;;54.37;49.13;;;;;;;21.48;100.00;100405.28;5029123;28;20053;-93
2022/08/23 00:26:58;;;;;;;48.88;44.22;;;;;;;21.26;100.00;100411.16;5024798;28;20064;-92
2022/08/23 00:29:33;;;;;;;51.85;46.97;;;;;;;21.45;100.00;100401.28;5011963;28;20042;-93
2022/08/23 00:32:04;;;;;;;48.97;44.50;;;;;;;21.43;100.00;100403.47;5012905;28;20057;-92
2022/08/23 00:34:38;;;;;;;49.45;45.20;;;;;;;21.44;100.00;100399.66;5017921;28;20069;-92
2022/08/23 00:37:11;;;;;;;50.95;46.10;;;;;;;21.31;100.00;100407.63;5016790;28;20050;-93
2022/08/23 00:39:40;;;;;;;54.42;49.60;;;;;;;21.19;100.00;100397.19;5012880;28;20057;-92
2022/08/23 00:47:52;;;;;;;48.40;44.13;;;;;;;21.27;100.00;100393.84;5010104;28;20045;-93
2022/08/23 00:50:28;;;;;;;48.53;43.55;;;;;;;21.11;100.00;100392.41;5006974;28;20072;-93
2022/08/23 00:53:02;;;;;;;47.75;43.35;;;;;;;21.49;100.00;100398.81;5019777;28;20050;-92
2022/08/23 00:55:30;;;;;;;46.83;42.00;;;;;;;21.52;100.00;100383.94;5005984;28;20072;-92
2022/08/23 00:57:58;;;;;;;51.85;47.55;;;;;;;21.53;100.00;100391.75;5016524;28;20073;-92
2022/08/23 01:00:26;;;;;;;49.05;44.67;;;;;;;21.13;100.00;100385.63;5017281;28;20053;-92
2022/08/23 01:02:54;;;;;;;50.78;45.80;;;;;;;21.36;100.00;100396.78;5017502;28;20042;-92
2022/08/23 01:05:38;;;;;;;51.17;46.28;;;;;;;21.11;100.00;100395.09;5018101;28;20088;-92
2022/08/23 01:08:07;;;;;;;49.45;45.15;;;;;;;21.03;100.00;100388.44;5020740;28;20064;-92
2022/08/23 01:10:46;;;;;;;47.58;42.97;;;;;;;21.47;100.00;100398.28;5016306;28;20081;-93
2022/08/23 01:13:20;;;;;;;49.75;45.22;;;;;;;21.37;100.00;100393.81;5021977;28;20051;-92
2022/08/23 01:15:55;;;;;;;51.08;46.00;;;;;;;21.44;100.00;100386.16;5026803;28;20045;-92
2022/08/23 01:18:26;;;;;;;49.60;44.95;;;;;;;21.04;100.00;100396.22;5021382;28;20049;-93
2022/08/23 01:21:01;;;;;;;47.58;43.03;;;;;;;21.06;100.00;100395.97;5026050;28;20072;-93
2022/08/23 01:23:40;;;;;;;48.45;43.85;;;;;;;21.07;100.00;100397.56;5014091;28;20053;-92
2022/08/23 01:26:08;;;;;;;49.53;44.85;;;;;;;20.91;100.00;100390.66;5016214;28;20475;-93
2022/08/23 01:28:36;;;;;;;47.95;43.55;;;;;;;21.12;100.00;100391.31;5026275;28;20050;-92
2022/08/23 01:31:04;;;;;;;48.42;43.95;;;;;;;21.30;100.00;100395.19;5014319;28;20078;-92
2022/08/23 01:33:35;;;;;;;50.75;45.70;;;;;;;21.30;100.00;100400.59;5016486;28;20053;-92
2022/08/23 01:36:06;;;;;;;56.27;51.50;;;;;;;21.33;100.00;100400.84;5015403;28;20046;-92
2022/08/23 01:38:36;;;;;;;56.72;51.25;;;;;;;21.43;100.00;100392.66;5015145;28;20046;-93
2022/08/23 01:41:05;;;;;;;51.83;46.72;;;;;;;21.05;100.00;100403.22;5014526;28;20042;-92
2022/08/23 01:43:35;;;;;;;52.22;47.75;;;;;;;21.18;100.00;100406.38;5015383;28;20079;-92
2022/08/23 01:46:11;;;;;;;50.90;46.47;;;;;;;21.23;100.00;100399.03;5015537;28;20435;-94
2022/08/23 01:48:44;;;;;;;51.60;46.95;;;;;;;21.22;100.00;100407.44;5015079;28;20076;-92
2022/08/23 01:51:11;;;;;;;;;;;;;;;21.50;100.00;100403.13;5018236;28;20078;-92
2022/08/23 01:53:42;;;;;;;53.95;49.42;;;;;;;21.45;100.00;100409.41;5013014;28;19922;-92
2022/08/23 01:56:09;;;;;;;53.95;49.28;;;;;;;21.23;100.00;100399.03;5008906;28;20056;-93
2022/08/23 01:58:37;;;;;;;52.80;48.05;;;;;;;20.72;100.00;100398.66;5011943;28;20651;-92
2022/08/23 02:01:05;;;;;;;49.63;45.70;;;;;;;20.99;100.00;100404.38;5088369;23;20112;-86
2022/08/23 02:03:36;;;;;;;55.05;49.85;;;;;;;21.09;100.00;100397.28;4993539;28;20057;-89
2022/08/23 02:06:04;;;;;;;51.80;47.10;;;;;;;21.01;100.00;100396.00;4996995;28;20050;-86
2022/08/23 02:11:20;;;;;;;51.55;47.22;;;;;;;21.15;100.00;100394.25;4985417;28;20049;-86
2022/08/23 02:13:50;;;;;;;49.67;45.58;;;;;;;20.74;100.00;100401.88;4993401;28;20085;-87
2022/08/23 02:16:45;;;;;;;53.70;49.50;;;;;;;20.59;100.00;100406.28;4986683;28;20066;-87
2022/08/23 02:19:14;;;;;;;58.38;53.35;;;;;;;20.71;100.00;100422.13;4990472;28;20054;-86
2022/08/23 02:21:42;;;;;;;64.05;58.75;;;;;;;20.92;100.00;100419.28;4978230;28;20055;-87
2022/08/23 02:24:12;;;;;;;59.88;54.65;;;;;;;20.97;100.00;100424.66;4994032;28;20042;-84
2022/08/23 02:26:45;;;;;;;64.55;58.50;;;;;;;21.19;100.00;100432.31;5004471;28;20375;-87
2022/08/23 02:29:14;;;;;;;65.72;60.03;;;;;;;21.19;100.00;100435.81;4997178;28;20046;-87
2022/08/23 02:31:41;;;;;;;66.35;60.33;;;;;;;21.18;100.00;100438.78;4990791;28;20049;-86
2022/08/23 02:34:10;;;;;;;63.58;58.33;;;;;;;21.18;100.00;100446.88;4992784;28;20061;-86
2022/08/23 02:36:38;;;;;;;58.10;53.15;;;;;;;21.21;100.00;100451.72;4987654;28;20057;-83
2022/08/23 02:39:08;;;;;;;60.53;55.70;;;;;;;21.34;100.00;100451.06;4987641;28;20051;-83
2022/08/23 02:41:37;;;;;;;61.63;56.75;;;;;;;21.28;100.00;100460.31;4986983;28;20039;-87
2022/08/23 02:44:11;;;;;;;64.40;59.47;;;;;;;21.18;100.00;100455.81;4985669;28;20046;-86
2022/08/23 02:46:38;;;;;;;59.75;54.75;;;;;;;21.25;100.00;100460.88;4987580;28;20046;-85
2022/08/23 02:49:05;;;;;;;62.45;57.15;;;;;;;21.30;100.00;100460.00;4997221;28;20463;-83
2022/08/23 02:51:33;;;;;;;63.95;59.15;;;;;;;21.26;100.00;100457.88;4979250;28;20467;-85
2022/08/23 02:54:01;;;;;;;58.42;53.42;;;;;;;21.22;100.00;100467.66;4994598;28;20061;-83
2022/08/23 02:56:28;;;;;;;56.50;51.63;;;;;;;20.73;100.00;100463.16;4989199;28;20061;-85
2022/08/23 02:58:55;;;;;;;63.17;57.75;;;;;;;20.76;100.00;100470.69;4987655;28;20471;-85
2022/08/23 03:01:25;;;;;;;66.82;61.33;;;;;;;21.06;100.00;100463.47;4989081;28;20499;-83
2022/08/23 03:03:52;;;;;;;57.90;53.17;;;;;;;21.06;100.00;100468.88;4979907;28;20507;-85
2022/08/23 03:06:19;;;;;;;55.92;51.22;;;;;;;20.96;100.00;100467.03;4987181;28;20452;-83
2022/08/23 03:08:47;;;;;;;60.00;54.97;;;;;;;20.89;100.00;100471.94;4984551;28;20054;-86
2022/08/23 03:11:16;;;;;;;53.38;49.08;;;;;;;21.05;100.00;100476.13;4982354;28;20065;-85
2022/08/23 03:13:55;;;;;;;53.17;48.33;;;;;;;21.26;100.00;100471.38;4993347;28;20046;-88
2022/08/23 03:16:47;;;;;;;53.05;48.55;;;;;;;21.31;100.00;100477.84;4984538;28;20558;-86
2022/08/23 03:19:14;;;;;;;49.15;44.88;;;;;;;20.63;100.00;100476.69;4963345;28;20050;-83
2022/08/23 03:21:42;;;;;;;50.88;46.50;;;;;;;20.35;100.00;100476.25;4983624;28;20051;-85
2022/08/23 03:24:10;;;;;;;48.30;43.47;;;;;;;20.39;100.00;100479.19;4993061;28;20135;-84
2022/08/23 03:26:42;;;;;;;58.67;53.70;;;;;;;20.81;100.00;100483.31;4996719;28;20512;-86
2022/08/23 03:29:09;;;;;;;54.43;48.93;;;;;;;20.55;100.00;100480.78;4989161;28;20047;-83
2022/08/23 03:31:42;;;;;;;68.35;62.92;;;;;;;20.73;100.00;100481.22;4982927;28;20077;-86
2022/08/23 03:34:15;;;;;;;67.40;62.40;;;;;;;21.03;100.00;100485.63;4996814;28;20054;-86
2022/08/23 03:36:55;;;;;;;62.00;56.95;;;;;;;21.14;100.00;100500.63;4996092;28;20046;-87
2022/08/23 03:39:39;;;;;;;62.53;57.45;;;;;;;21.01;100.00;100498.59;4980801;28;20051;-86
2022/08/23 03:42:10;;;;;;;61.28;56.50;;;;;;;20.96;100.00;100499.41;4996149;28;20545;-84
2022/08/23 03:44:41;;;;;;;58.60;53.38;;;;;;;20.70;100.00;100496.09;4995908;28;20057;-86
2022/08/23 03:47:08;;;;;;;53.58;49.15;;;;;;;20.33;100.00;100502.72;4996216;28;20061;-84
2022/08/23 03:49:51;;;;;;;58.75;54.10;;;;;;;20.69;100.00;100496.34;4991088;28;20042;-86
2022/08/23 03:52:23;;;;;;;;;;;;;;;20.98;100.00;100502.66;4994917;28;20050;-86
2022/08/23 03:55:11;;;;;;;56.88;52.38;;;;;;;21.13;100.00;100501.75;4980972;28;19925;-89
2022/08/23 03:57:44;;;;;;;58.25;54.08;;;;;;;21.23;100.00;100506.25;4981769;28;20059;-85
2022/08/23 04:00:21;;;;;;;50.28;46.40;;;;;;;21.21;100.00;100509.25;4991554;28;20112;-85
2022/08/23 04:02:48;;;;;;;53.00;48.45;;;;;;;21.45;100.00;100501.25;4990884;28;20050;-86
2022/08/23 04:05:19;;;;;;;51.53;46.92;;;;;;;21.41;100.00;100508.28;4996426;28;20050;-86
2022/08/23 04:07:46;;;;;;;52.80;48.60;;;;;;;21.56;100.00;100501.16;4984159;28;20050;-84
2022/08/23 04:10:16;;;;;;;50.40;45.55;;;;;;;21.70;100.00;100508.31;4977089;28;20066;-86
2022/08/23 04:12:43;;;;;;;47.20;43.22;;;;;;;21.78;100.00;100511.47;4993179;28;20464;-84
2022/08/23 04:15:12;;;;;;;51.92;47.22;;;;;;;21.86;100.00;100514.38;4977400;28;20054;-82
2022/08/23 04:17:41;;;;;;;57.72;52.92;;;;;;;21.79;100.00;100510.41;4982712;28;20058;-83
2022/08/23 04:20:09;;;;;;;52.85;48.50;;;;;;;21.60;100.00;100513.78;4995519;28;20495;-84
2022/08/23 04:22:45;;;;;;;56.42;51.42;;;;;;;21.69;100.00;100514.00;4986293;28;20423;-85
2022/08/23 04:25:12;;;;;;;59.33;54.65;;;;;;;21.23;100.00;100517.06;4976116;28;20558;-83
2022/08/23 04:27:40;;;;;;;48.15;43.85;;;;;;;21.35;100.00;100520.19;4993282;28;20061;-86
2022/08/23 04:30:09;;;;;;;49.85;45.90;;;;;;;21.72;100.00;100510.72;4995204;28;20050;-86
2022/08/23 04:32:40;;;;;;;54.20;50.10;;;;;;;21.97;100.00;100512.38;4978557;28;20054;-83
2022/08/23 04:35:07;;;;;;;51.38;47.13;;;;;;;21.96;100.00;100510.75;4976177;28;20050;-83
2022/08/23 04:37:35;;;;;;;48.65;44.40;;;;;;;22.06;100.00;100512.53;4993950;28;20065;-84
2022/08/23 04:42:54;;;;;;;54.47;50.03;;;;;;;22.18;100.00;100504.88;4993612;28;20061;-86
2022/08/23 04:45:21;;;;;;;50.03;46.17;;;;;;;22.02;100.00;100512.31;4994863;28;20046;-86
2022/08/23 04:47:48;;;;;;;50.13;46.17;;;;;;;22.04;100.00;100507.41;4994899;28;20500;-85
2022/08/23 04:50:15;;;;;;;49.00;45.22;;;;;;;21.85;100.00;100510.06;4989944;28;20069;-83
2022/08/23 04:52:42;;;;;;;47.50;43.28;;;;;;;22.30;100.00;100507.97;4994614;28;20053;-82
2022/08/23 04:55:11;;;;;;;49.28;45.30;;;;;;;22.46;100.00;100505.88;4994917;28;20050;-83
2022/08/23 04:57:42;;;;;;;49.15;45.38;;;;;;;22.55;100.00;100506.84;4993131;28;20050;-86
2022/08/23 05:00:11;;;;;;;46.58;42.60;;;;;;;22.36;100.00;100504.09;4994582;28;20086;-82
2022/08/23 05:02:39;;;;;;;48.05;44.35;;;;;;;22.38;100.00;100498.38;4993835;28;20063;-83
2022/08/23 05:05:07;;;;;;;49.55;45.50;;;;;;;22.63;100.00;100511.59;4986527;28;20074;-86
2022/08/23 05:07:41;;;;;;;49.72;45.30;;;;;;;22.80;100.00;100510.28;4982237;28;20046;-86
2022/08/23 05:10:14;;;;;;;52.50;47.90;;;;;;;22.98;100.00;100516.84;4980610;28;20054;-87
2022/08/23 05:12:54;;;;;;;53.88;49.63;;;;;;;22.91;100.00;100511.75;4987997;28;20050;-86
2022/08/23 05:15:27;;;;;;;53.50;49.25;;;;;;;23.01;100.00;100508.91;4994322;28;20046;-86
2022/08/23 05:17:55;;;;;;;55.13;50.40;;;;;;;23.09;100.00;100510.97;4975380;28;20124;-83
2022/08/23 05:20:30;;;;;;;42.30;38.83;;;;;;;22.99;100.00;100515.72;4975940;28;20059;-86
2022/08/23 05:23:01;;;;;;;48.10;44.35;;;;;;;23.20;100.00;100516.22;4984794;28;20069;-85
2022/08/23 05:28:11;;;;;;;47.65;43.63;;;;;;;23.52;100.00;100521.66;4980346;28;20468;-82
2022/08/23 05:30:39;;;;;;;49.42;45.53;;;;;;;23.47;100.00;100531.78;4990078;28;20042;-86
2022/08/23 05:33:06;;;;;;;50.45;46.38;;;;;;;23.29;100.00;100528.00;4995456;28;20128;-85
2022/08/23 05:35:39;;;;;;;57.72;53.38;;;;;;;23.31;100.00;100520.38;4994568;28;20419;-84
2022/08/23 05:38:06;;;;;;;54.80;50.80;;;;;;;23.13;100.00;100527.44;4993892;28;20047;-86
2022/08/23 05:40:37;;;;;;;53.20;49.30;;;;;;;23.08;100.00;100528.31;5001061;28;20094;-85
2022/08/23 05:43:05;;;;;;;54.50;50.38;;;;;;;23.36;100.00;100528.44;4993751;28;20412;-83
2022/08/23 05:45:31;;;;;;;61.40;56.75;;;;;;;23.48;100.00;100530.66;4983846;28;20058;-83
2022/08/23 05:48:00;;;;;;;63.83;59.33;;;;;;;23.75;100.00;100525.34;4994202;28;20222;-85
2022/08/23 05:50:29;;;;;;;58.88;53.53;;;;;;;23.65;100.00;100524.69;4995350;28;20058;-85
2022/08/23 05:52:56;;;;;;;58.42;53.90;;;;;;;24.07;100.00;100522.88;4982436;28;20384;-82
2022/08/23 05:55:23;;;;;;;61.80;57.30;;;;;;;24.08;100.00;100533.41;4988458;28;20466;-81
2022/08/23 05:57:56;;;;;;;62.90;58.92;;;;;;;24.14;100.00;100525.97;4994553;28;20054;-85
2022/08/23 06:00:23;;;;;;;47.33;44.13;;;;;;;24.35;100.00;100520.94;4991984;28;20054;-82
2022/08/23 06:02:51;;;;;;;45.35;42.25;;;;;;;24.49;100.00;100518.25;4997172;28;20069;-85
2022/08/23 06:05:19;;;;;;;43.65;40.65;;;;;;;24.70;100.00;100518.63;4987684;28;20046;-83
2022/08/23 06:07:46;;;;;;;40.70;38.00;;;;;;;24.54;100.00;100516.25;4990634;28;20130;-86
2022/08/23 06:10:13;;;;;;;41.25;38.33;;;;;;;24.84;100.00;100519.38;4992821;28;20055;-86
2022/08/23 06:12:40;;;;;;;38.72;35.80;;;;;;;24.81;100.00;100515.38;4989611;28;20054;-85
2022/08/23 06:15:14;;;;;;;39.55;36.10;;;;;;;24.57;100.00;100521.06;4988190;28;20050;-86
2022/08/23 06:17:41;;;;;;;40.42;37.47;;;;;;;24.96;100.00;100521.56;4987754;28;20074;-83
2022/08/23 06:20:09;;;;;;;38.97;36.03;;;;;;;25.25;100.00;100521.19;4986762;28;20057;-83
2022/08/23 06:22:37;;;;;;;41.42;38.40;;;;;;;25.38;100.00;100520.31;4989189;28;20042;-86
2022/08/23 06:25:19;;;;;;;38.55;35.75;;;;;;;25.58;100.00;100522.50;4988911;28;20452;-86
2022/08/23 06:27:49;;;;;;;38.80;36.20;;;;;;;25.88;100.00;100522.06;4993580;28;20054;-84
2022/08/23 06:30:19;;;;;;;36.45;33.65;;;;;;;25.69;100.00;100520.34;4998971;28;20050;-85
2022/08/23 06:32:56;;;;;;;41.97;39.00;;;;;;;26.20;100.00;100529.06;4978024;28;20403;-87
2022/08/23 06:35:25;;;;;;;36.38;33.58;;;;;;;26.39;100.00;100528.81;4992876;28;20042;-85
2022/08/23 06:37:52;;;;;;;32.92;30.25;;;;;;;26.29;100.00;100527.16;4988211;28;20050;-82
2022/08/23 06:40:20;;;;;;;35.35;32.05;;;;;;;26.29;100.00;100527.16;4994093;28;20061;-84
2022/08/23 06:42:47;;;;;;;29.55;27.50;;;;;;;26.01;100.00;100532.81;4992706;28;20050;-83
2022/08/23 06:45:16;;;;;;;30.40;28.13;;;;;;;26.29;100.00;100532.59;4991185;28;20051;-86
2022/08/23 06:47:44;;;;;;;29.02;26.80;;;;;;;26.42;100.00;100539.06;4992431;28;20482;-84
2022/08/23 06:50:13;;;;;;;30.13;28.15;;;;;;;26.31;100.00;100537.75;5001961;28;20047;-87
2022/08/23 06:52:54;;;;;;;30.38;27.75;;;;;;;26.30;100.00;100541.59;4998636;28;20050;-87
2022/08/23 06:55:28;;;;;;;32.03;29.83;;;;;;;26.30;100.00;100541.59;4997456;28;20053;-87
2022/08/23 06:57:57;;;;;;;30.50;27.58;;;;;;;26.48;100.00;100544.03;4981497;28;20062;-86
2022/08/23 07:00:30;;;;;;;30.17;28.15;;;;;;;26.64;100.00;100540.91;4997295;28;20046;-86
2022/08/23 07:02:58;;;;;;;34.78;31.50;;;;;;;26.58;100.00;100545.69;4958071;28;20055;-84
2022/08/23 07:05:33;;;;;;;29.10;26.88;;;;;;;27.17;100.00;100546.09;4955285;29;20047;-84
2022/08/23 07:08:00;;;;;;;30.10;27.80;;;;;;;27.39;100.00;100557.94;4953174;28;20055;-89
2022/08/23 07:10:31;;;;;;;33.85;31.73;;;;;;;26.96;100.00;100545.09;4951899;29;20043;-86
2022/08/23 07:12:59;;;;;;;29.60;27.40;;;;;;;27.59;100.00;100548.25;4950077;28;20043;-83
2022/08/23 07:15:26;;;;;;;32.28;29.75;;;;;;;27.85;100.00;100540.84;4959101;28;20047;-87
2022/08/23 07:17:54;;;;;;;30.17;28.27;;;;;;;27.57;100.00;100540.41;4960097;28;20039;-83
2022/08/23 07:20:22;;;;;;;30.90;28.27;;;;;;;27.47;100.00;100548.13;4945515;29;20115;-83
2022/08/23 07:22:49;;;;;;;32.17;29.75;;;;;;;27.75;100.00;100540.38;4948953;29;20452;-86
2022/08/23 07:25:16;;;;;;;33.92;31.58;;;;;;;28.12;100.00;100543.47;4959360;28;20062;-85
2022/08/23 07:27:43;;;;;;;36.25;33.85;;;;;;;28.46;100.00;100537.84;4956927;28;20047;-84
2022/08/23 07:30:11;;;;;;;34.72;31.75;;;;;;;28.44;100.00;100544.75;4956777;28;20061;-85
2022/08/23 07:32:39;;;;;;;32.22;29.83;;;;;;;27.79;100.00;100536.69;4950732;29;20047;-84
2022/08/23 07:35:06;;;;;;;31.00;28.60;;;;;;;27.40;100.00;100537.72;4958198;29;20062;-86
2022/08/23 07:37:36;;;;;;;31.85;29.33;;;;;;;27.87;100.00;100535.06;4955983;29;20054;-80
2022/08/23 07:40:06;;;;;;;33.17;30.50;;;;;;;28.25;100.00;100529.56;4943152;28;20048;-83
2022/08/23 07:42:35;;;;;;;36.78;33.92;;;;;;;28.20;100.00;100534.41;4955758;29;20530;-84
2022/08/23 07:45:18;;;;;;;37.50;34.55;;;;;;;28.49;100.00;100528.19;4947391;29;20400;-85
2022/08/23 07:47:47;;;;;;;32.55;29.92;;;;;;;28.49;100.00;100534.44;4942709;29;20110;-83
2022/08/23 07:50:21;;;;;;;29.38;26.98;;;;;;;28.68;100.00;100538.66;4951445;29;20091;-86
2022/08/23 07:53:02;;;;;;;31.73;29.13;;;;;;;28.30;100.00;100536.78;4954364;29;20483;-84
2022/08/23 07:55:37;;;;;;;31.27;28.75;;;;;;;28.75;100.00;100538.94;4950847;28;20138;-86
2022/08/23 07:58:10;;;;;;;31.25;28.42;;;;;;;28.99;100.00;100541.00;4953849;28;20051;-88
2022/08/23 08:00:41;;;;;;;32.50;29.77;;;;;;;29.39;100.00;100544.03;4957130;28;20472;-85
2022/08/23 08:03:17;;;;;;;33.70;31.17;;;;;;;28.92;100.00;100536.06;4993106;28;20047;-85
2022/08/23 08:05:46;;;;;;;34.97;32.28;;;;;;;29.39;100.00;100537.78;4992161;28;20391;-86
2022/08/23 08:08:41;;;;;;;33.45;30.85;;;;;;;29.07;100.00;100536.63;4987439;28;20060;-84
2022/08/23 08:11:15;;;;;;;33.15;30.15;;;;;;;29.14;100.00;100542.34;4984902;28;20046;-84
2022/08/23 08:13:44;;;;;;;31.48;28.95;;;;;;;29.38;100.00;100527.97;4992429;28;20455;-88
2022/08/23 08:16:28;;;;;;;33.00;30.42;;;;;;;29.73;100.00;100535.84;4986999;28;20051;-85
2022/08/23 08:19:05;;;;;;;28.65;26.27;;;;;;;29.26;100.00;100536.94;4992555;28;20046;-85
2022/08/23 08:21:38;;;;;;;29.85;27.35;;;;;;;29.19;100.00;100529.25;4991343;28;20042;-83
2022/08/23 08:24:23;;;;;;;29.73;27.17;;;;;;;29.58;100.00;100534.53;4981914;28;20050;-86
2022/08/23 08:26:51;;;;;;;30.85;28.25;;;;;;;29.80;100.00;100533.31;4986613;28;20047;-84
2022/08/23 08:29:26;;;;;;;28.88;26.98;;;;;;;29.61;100.00;100531.09;4990991;28;20084;-86
2022/08/23 08:32:03;;;;;;;29.83;27.63;;;;;;;30.01;100.00;100536.78;4995911;28;20046;-88
2022/08/23 08:34:42;;;;;;;33.20;30.25;;;;;;;29.94;100.00;100536.53;4982983;28;20051;-85
2022/08/23 08:37:15;;;;;;;34.00;31.60;;;;;;;30.10;100.00;100540.19;4991246;28;20049;-87
2022/08/23 08:39:53;;;;;;;36.22;33.22;;;;;;;30.50;100.00;100539.53;4996906;28;20046;-88
2022/08/23 08:42:47;;;;;;;33.40;30.45;;;;;;;30.89;100.00;100536.38;4994469;28;20181;-85
2022/08/23 08:45:49;;;;;;;31.63;29.40;;;;;;;30.84;100.00;100531.94;4988184;28;20061;-85
2022/08/23 08:48:30;;;;;;;32.87;30.07;;;;;;;31.00;100.00;100532.00;4984799;28;20086;-86
2022/08/23 08:51:14;;;;;;;33.13;30.40;;;;;;;31.17;100.00;100534.47;4986941;28;20475;-87
2022/08/23 08:53:50;;;;;;;33.60;31.10;;;;;;;30.81;100.00;100540.88;4985831;28;20124;-86
2022/08/23 08:56:29;;;;;;;31.77;29.20;;;;;;;30.78;100.00;100536.88;4987066;28;20053;-86
2022/08/23 08:59:14;;;;;;;31.60;29.10;;;;;;;30.91;100.00;100534.88;4985119;28;20050;-85
2022/08/23 09:01:42;;;;;;;31.65;28.60;;;;;;;30.75;100.00;100536.75;4991234;28;20053;-88
2022/08/23 09:04:13;;;;;;;31.98;29.58;;;;;;;31.17;100.00;100537.19;4995406;28;20475;-85
2022/08/23 09:06:55;;;;;;;33.65;30.90;;;;;;;31.32;100.00;100537.56;4990281;28;20113;-88
2022/08/23 09:09:44;;;;;;;32.42;29.77;;;;;;;31.35;100.00;100536.91;4987220;28;20054;-84
2022/08/23 09:12:31;;;;;;;33.72;30.98;;;;;;;31.56;100.00;100537.50;4984949;28;20051;-85
2022/08/23 09:15:19;;;;;;;35.10;31.63;;;;;;;30.70;100.00;100537.75;4989583;28;20050;-85
2022/08/23 09:17:53;;;;;;;31.05;28.85;;;;;;;30.37;100.00;100532.47;4977396;28;20126;-85
2022/08/23 09:20:27;;;;;;;31.25;28.77;;;;;;;31.56;100.00;100533.91;4984282;28;20050;-86
2022/08/23 09:23:12;;;;;;;32.47;29.90;;;;;;;31.36;100.00;100531.06;4977602;28;20145;-86
2022/08/23 09:25:55;;;;;;;35.35;32.45;;;;;;;31.91;100.00;100523.09;4984010;28;20471;-84
2022/08/23 09:28:28;;;;;;;36.75;33.95;;;;;;;32.11;100.00;100533.00;4975879;28;20054;-85
2022/08/23 09:31:36;;;;;;;33.05;30.75;;;;;;;31.56;100.00;100529.25;4992306;28;20054;-87
2022/08/23 09:34:15;;;;;;;34.40;31.58;;;;;;;32.38;100.00;100525.78;4980177;28;20061;-87
2022/08/23 09:36:43;;;;;;;33.58;30.92;;;;;;;32.18;100.00;100524.13;4985044;28;20537;-87
2022/08/23 09:39:29;;;;;;;32.85;30.58;;;;;;;32.21;100.00;100528.91;4991963;28;20475;-85
2022/08/23 09:42:02;;;;;;;33.50;30.95;;;;;;;32.38;100.00;100508.50;4995341;28;20062;-87
2022/08/23 09:44:40;;;;;;;33.22;30.80;;;;;;;32.60;100.00;100507.81;4993510;28;20545;-87
2022/08/23 09:47:21;;;;;;;33.38;31.08;;;;;;;32.96;100.00;100502.25;4992290;28;20039;-85
2022/08/23 09:49:51;;;;;;;33.75;31.20;;;;;;;33.44;97.82;100495.34;4991490;28;20050;-86
2022/08/23 09:52:21;;;;;;;34.10;31.73;;;;;;;33.65;100.00;100491.34;4984116;28;20078;-84
2022/08/23 09:54:59;;;;;;;31.10;28.55;;;;;;;33.37;92.17;100483.38;4996417;28;20042;-84
2022/08/23 09:57:33;;;;;;;34.30;31.67;;;;;;;33.92;92.48;100483.94;5000896;28;20129;-83
2022/08/23 10:00:22;;;;;;;32.03;29.23;;;;;;;33.24;83.23;100486.31;4984500;28;20058;-84
2022/08/23 10:02:49;;;;;;;33.22;30.48;;;;;;;32.44;97.77;100493.34;4988299;28;20064;-83
2022/08/23 10:05:40;;;;;;;32.42;29.92;;;;;;;33.34;100.00;100482.16;4990462;28;20051;-86
2022/08/23 10:08:08;;;;;;;33.50;31.00;;;;;;;33.94;90.72;100487.91;4984179;28;20388;-84
2022/08/23 10:10:45;;;;;;;34.17;31.70;;;;;;;34.12;84.15;100488.19;4983369;28;20047;-87
2022/08/23 10:13:17;;;;;;;31.48;29.10;;;;;;;33.73;89.55;100487.56;4985985;28;20047;-86
2022/08/23 10:16:01;;;;;;;;;;;;;;;33.82;86.64;100487.31;4990057;28;20391;-86
2022/08/23 10:18:51;;;;;;;33.15;30.58;;;;;;;34.76;84.82;100484.75;4988441;28;19929;-86
2022/08/23 10:21:34;;;;;;;30.42;27.73;;;;;;;33.90;95.52;100478.81;4982749;28;20055;-86
2022/08/23 10:24:20;;;;;;;31.23;28.80;;;;;;;32.80;94.28;100474.81;4978460;28;20055;-82
2022/08/23 10:29:35;;;;;;;32.58;29.50;;;;;;;33.29;100.00;100479.72;4985114;28;20089;-85
2022/08/23 10:30:02;;;;;;;33.97;31.42;;;;;;;33.78;97.61;100486.47;4990451;28;20530;-82
2022/08/23 10:32:56;;;;;;;35.72;32.35;;;;;;;34.16;79.01;100479.97;4982819;28;20559;-85
2022/08/23 10:35:46;;;;;;;34.13;31.27;;;;;;;33.30;95.43;100476.59;4978384;28;20053;-83
2022/08/23 10:38:41;;;;;;;30.80;28.35;;;;;;;33.68;96.39;100479.63;4982857;28;20046;-82
2022/08/23 10:41:43;;;;;;;31.20;28.73;;;;;;;32.79;100.00;100478.75;4977802;28;20050;-85
2022/08/23 10:44:27;;;;;;;32.92;30.38;;;;;;;32.30;97.28;100484.75;4974195;28;20055;-85
2022/08/23 10:47:09;;;;;;;33.47;30.80;;;;;;;32.64;97.60;100493.34;4985306;28;20090;-85
2022/08/23 10:49:52;;;;;;;35.85;33.10;;;;;;;32.66;91.86;100491.06;4994534;28;20050;-83
2022/08/23 10:52:29;;;;;;;35.00;31.38;;;;;;;32.76;94.53;100488.50;4994100;28;20046;-84
2022/08/23 10:55:05;;;;;;;34.75;31.67;;;;;;;32.92;94.35;100488.44;4980468;28;20050;-82
2022/08/23 10:57:40;;;;;;;38.58;35.33;;;;;;;32.08;97.38;100495.25;4992782;28;20066;-81
2022/08/23 11:00:12;;;;;;;34.72;32.13;;;;;;;32.29;99.62;100481.22;4995587;28;20108;-83
2022/08/23 11:02:49;;;;;;;35.33;32.25;;;;;;;32.44;100.00;100490.59;4981838;28;20051;-86
2022/08/23 11:05:25;;;;;;;34.92;32.17;;;;;;;32.23;100.00;100492.84;4987535;28;20468;-84
2022/08/23 11:08:01;;;;;;;35.95;33.13;;;;;;;32.26;100.00;100490.19;4988811;28;20368;-83
2022/08/23 11:10:46;;;;;;;36.75;33.85;;;;;;;32.69;99.34;100491.13;4992336;28;20046;-86
2022/08/23 11:13:23;;;;;;;36.28;32.83;;;;;;;33.20;99.84;100487.44;4986299;28;20054;-82
2022/08/23 11:16:12;;;;;;;35.30;32.47;;;;;;;32.38;100.00;100492.78;4984484;28;20049;-85
2022/08/23 11:18:44;;;;;;;34.45;31.23;;;;;;;32.71;100.00;100488.81;4991374;28;20065;-84
2022/08/23 11:21:41;;;;;;;33.83;30.77;;;;;;;33.69;93.66;100484.75;4988191;28;20069;-86
2022/08/23 11:24:47;;;;;;;35.53;32.67;;;;;;;33.72;88.96;100480.47;4995067;28;20050;-85
2022/08/23 11:27:47;;;;;;;38.38;35.33;;;;;;;34.40;88.60;100484.25;4969968;28;20445;-84
2022/08/23 11:30:56;;;;;;;37.30;34.10;;;;;;;33.49;93.11;100474.94;4951263;28;20372;-86
2022/08/23 11:33:25;;;;;;;35.17;32.00;;;;;;;34.26;84.65;100470.31;4975780;28;20054;-84
2022/08/23 11:36:07;;;;;;;35.50;32.70;;;;;;;33.37;84.06;100481.44;4982830;28;20050;-84
2022/08/23 11:39:12;;;;;;;34.65;31.38;;;;;;;33.25;90.97;100474.13;4996594;28;20399;-85
2022/08/23 11:42:03;;;;;;;33.72;30.75;;;;;;;33.93;97.91;100467.03;4988789;28;20561;-84
2022/08/23 11:44:44;;;;;;;35.13;31.77;;;;;;;33.73;91.42;100462.78;4982945;28;20046;-84
2022/08/23 11:47:14;;;;;;;34.40;31.60;;;;;;;33.70;94.98;100461.56;4984918;28;20053;-84
2022/08/23 11:50:06;;;;;;;34.45;31.67;;;;;;;34.00;91.00;100460.84;4995363;28;20163;-84